createdAt,value
2022-12-08T00:18:37.771Z,86
2022-12-08T00:47:48.014Z,86
2022-12-08T01:16:55.108Z,85
2022-12-08T01:45:52.317Z,86
2022-12-08T02:15:06.096Z,89
2022-12-08T02:44:03.566Z,92
2022-12-08T03:13:18.925Z,93
2022-12-08T03:42:29.568Z,92
2022-12-08T04:11:53.791Z,93
2022-12-08T04:41:16.872Z,93
2022-12-08T05:10:39.657Z,93
2022-12-08T05:40:07.283Z,92
2022-12-08T06:09:03.466Z,93
2022-12-08T06:38:24.494Z,93
2022-12-08T07:07:41.682Z,93
2022-12-08T07:36:58.933Z,93
2022-12-08T08:06:19.469Z,92
2022-12-08T08:35:40.253Z,92
2022-12-08T09:05:01.007Z,93
2022-12-08T09:34:13.296Z,91
2022-12-08T10:03:35.196Z,91
2022-12-08T10:32:47.183Z,87
2022-12-08T11:01:53.375Z,86
2022-12-08T11:30:58.861Z,85
2022-12-08T12:00:08.920Z,82
2022-12-08T12:29:12.827Z,81
2022-12-08T12:58:31.362Z,77
2022-12-08T13:27:47.745Z,74
2022-12-08T13:57:13.879Z,74
2022-12-08T14:25:48.559Z,74
2022-12-08T14:55:01.497Z,75
2022-12-08T15:24:11.215Z,77
2022-12-08T15:53:17.320Z,78
2022-12-08T16:22:56.694Z,79
2022-12-08T16:51:05.152Z,80
2022-12-08T17:20:14.150Z,80
2022-12-08T17:49:29.977Z,81
2022-12-08T18:18:37.432Z,81
2022-12-08T18:47:54.622Z,82
2022-12-08T19:17:14.888Z,86
2022-12-08T19:46:41.330Z,83
2022-12-08T20:15:18.981Z,83
2022-12-08T20:44:36.533Z,83
2022-12-08T21:13:49.079Z,83
2022-12-08T21:42:54.448Z,83
2022-12-08T22:11:55.198Z,83
2022-12-08T22:41:03.705Z,83
2022-12-08T23:10:12.405Z,83
2022-12-08T23:39:00.396Z,83
